sensor_id;sensor_type;location;lat;lon;timestamp;temperature;humidity
37446;DHT22;23307;51.136;14.942;2023-02-15T00:00:07;3.40;99.90
37446;DHT22;23307;51.136;14.942;2023-02-15T00:02:35;3.40;99.90
37446;DHT22;23307;51.136;14.942;2023-02-15T00:05:01;3.40;99.90
37446;DHT22;23307;51.136;14.942;2023-02-15T00:07:26;3.40;99.90
37446;DHT22;23307;51.136;14.942;2023-02-15T00:09:52;3.40;99.90
37446;DHT22;23307;51.136;14.942;2023-02-15T00:12:17;3.40;99.90
37446;DHT22;23307;51.136;14.942;2023-02-15T00:14:43;3.40;99.90
37446;DHT22;23307;51.136;14.942;2023-02-15T00:17:09;3.40;99.90
37446;DHT22;23307;51.136;14.942;2023-02-15T00:19:34;3.40;99.90
37446;DHT22;23307;51.136;14.942;2023-02-15T00:22:02;3.40;99.90
37446;DHT22;23307;51.136;14.942;2023-02-15T00:24:27;3.40;99.90
37446;DHT22;23307;51.136;14.942;2023-02-15T00:26:53;3.40;99.90
37446;DHT22;23307;51.136;14.942;2023-02-15T00:29:19;3.40;99.90
37446;DHT22;23307;51.136;14.942;2023-02-15T00:31:45;3.40;99.90
37446;DHT22;23307;51.136;14.942;2023-02-15T00:36:37;3.40;99.90
37446;DHT22;23307;51.136;14.942;2023-02-15T00:39:03;3.40;99.90
37446;DHT22;23307;51.136;14.942;2023-02-15T00:41:30;3.30;99.90
37446;DHT22;23307;51.136;14.942;2023-02-15T00:43:55;3.30;99.90
37446;DHT22;23307;51.136;14.942;2023-02-15T00:46:21;3.30;99.90
37446;DHT22;23307;51.136;14.942;2023-02-15T00:48:46;3.30;99.90
37446;DHT22;23307;51.136;14.942;2023-02-15T00:51:12;3.30;99.90
37446;DHT22;23307;51.136;14.942;2023-02-15T00:53:37;3.30;99.90
37446;DHT22;23307;51.136;14.942;2023-02-15T00:56:03;3.30;99.90
37446;DHT22;23307;51.136;14.942;2023-02-15T00:58:28;3.30;99.90
37446;DHT22;23307;51.136;14.942;2023-02-15T01:00:54;3.30;99.90
37446;DHT22;23307;51.136;14.942;2023-02-15T01:03:20;3.30;99.90
37446;DHT22;23307;51.136;14.942;2023-02-15T01:05:48;3.20;99.90
37446;DHT22;23307;51.136;14.942;2023-02-15T01:08:14;3.20;99.90
37446;DHT22;23307;51.136;14.942;2023-02-15T01:10:40;3.20;99.90
37446;DHT22;23307;51.136;14.942;2023-02-15T01:13:06;3.20;99.90
37446;DHT22;23307;51.136;14.942;2023-02-15T01:15:34;3.20;99.90
37446;DHT22;23307;51.136;14.942;2023-02-15T01:18:00;3.30;99.90
37446;DHT22;23307;51.136;14.942;2023-02-15T01:20:27;3.30;99.90
37446;DHT22;23307;51.136;14.942;2023-02-15T01:22:54;3.30;99.90
37446;DHT22;23307;51.136;14.942;2023-02-15T01:25:21;3.30;99.90
37446;DHT22;23307;51.136;14.942;2023-02-15T01:27:48;3.30;99.90
37446;DHT22;23307;51.136;14.942;2023-02-15T01:30:14;3.30;99.90
37446;DHT22;23307;51.136;14.942;2023-02-15T01:32:41;3.30;99.90
37446;DHT22;23307;51.136;14.942;2023-02-15T01:35:07;3.30;99.90
37446;DHT22;23307;51.136;14.942;2023-02-15T01:37:34;3.40;99.90
37446;DHT22;23307;51.136;14.942;2023-02-15T01:40:00;3.40;99.90
37446;DHT22;23307;51.136;14.942;2023-02-15T01:42:27;3.40;99.90
37446;DHT22;23307;51.136;14.942;2023-02-15T01:45:00;3.40;99.90
37446;DHT22;23307;51.136;14.942;2023-02-15T01:47:29;3.40;99.90
37446;DHT22;23307;51.136;14.942;2023-02-15T01:50:13;3.30;99.90
37446;DHT22;23307;51.136;14.942;2023-02-15T01:52:57;3.30;99.90
37446;DHT22;23307;51.136;14.942;2023-02-15T01:55:26;3.30;99.90
37446;DHT22;23307;51.136;14.942;2023-02-15T01:57:53;3.30;99.90
37446;DHT22;23307;51.136;14.942;2023-02-15T02:00:19;3.30;99.90
37446;DHT22;23307;51.136;14.942;2023-02-15T02:02:48;3.30;99.90
37446;DHT22;23307;51.136;14.942;2023-02-15T02:05:15;3.20;99.90
37446;DHT22;23307;51.136;14.942;2023-02-15T02:07:42;3.20;99.90
37446;DHT22;23307;51.136;14.942;2023-02-15T02:10:12;3.20;99.90
37446;DHT22;23307;51.136;14.942;2023-02-15T02:12:40;3.20;99.90
37446;DHT22;23307;51.136;14.942;2023-02-15T02:15:07;3.20;99.90
37446;DHT22;23307;51.136;14.942;2023-02-15T02:18:14;3.20;99.90
37446;DHT22;23307;51.136;14.942;2023-02-15T02:27:12;3.20;99.90
37446;DHT22;23307;51.136;14.942;2023-02-15T02:35:22;3.20;99.90
37446;DHT22;23307;51.136;14.942;2023-02-15T02:38:05;3.20;99.90
37446;DHT22;23307;51.136;14.942;2023-02-15T02:40:55;3.10;99.90
37446;DHT22;23307;51.136;14.942;2023-02-15T02:43:59;3.10;99.90
37446;DHT22;23307;51.136;14.942;2023-02-15T02:46:39;3.10;99.90
37446;DHT22;23307;51.136;14.942;2023-02-15T02:49:09;3.10;99.90
37446;DHT22;23307;51.136;14.942;2023-02-15T02:51:34;3.10;99.90
37446;DHT22;23307;51.136;14.942;2023-02-15T02:54:04;3.10;99.90
37446;DHT22;23307;51.136;14.942;2023-02-15T02:56:36;3.10;99.90
37446;DHT22;23307;51.136;14.942;2023-02-15T02:59:06;3.10;99.90
37446;DHT22;23307;51.136;14.942;2023-02-15T03:04:07;3.00;99.90
37446;DHT22;23307;51.136;14.942;2023-02-15T03:06:48;3.00;99.90
37446;DHT22;23307;51.136;14.942;2023-02-15T03:09:26;3.00;99.90
37446;DHT22;23307;51.136;14.942;2023-02-15T03:12:00;3.00;99.90
37446;DHT22;23307;51.136;14.942;2023-02-15T03:14:26;3.00;99.90
37446;DHT22;23307;51.136;14.942;2023-02-15T03:16:52;3.00;99.90
37446;DHT22;23307;51.136;14.942;2023-02-15T03:19:23;2.90;99.90
37446;DHT22;23307;51.136;14.942;2023-02-15T03:21:53;2.90;99.90
37446;DHT22;23307;51.136;14.942;2023-02-15T03:24:34;2.90;99.90
37446;DHT22;23307;51.136;14.942;2023-02-15T03:27:03;2.90;99.90
37446;DHT22;23307;51.136;14.942;2023-02-15T03:29:30;2.90;99.90
37446;DHT22;23307;51.136;14.942;2023-02-15T03:31:59;2.90;99.90
37446;DHT22;23307;51.136;14.942;2023-02-15T03:34:26;2.90;99.90
37446;DHT22;23307;51.136;14.942;2023-02-15T03:37:35;2.90;99.90
37446;DHT22;23307;51.136;14.942;2023-02-15T03:40:40;2.90;99.90
37446;DHT22;23307;51.136;14.942;2023-02-15T03:46:51;2.80;99.90
37446;DHT22;23307;51.136;14.942;2023-02-15T03:49:25;2.80;99.90
37446;DHT22;23307;51.136;14.942;2023-02-15T03:51:55;2.80;99.90
37446;DHT22;23307;51.136;14.942;2023-02-15T03:54:29;2.90;99.90
37446;DHT22;23307;51.136;14.942;2023-02-15T03:57:13;2.90;99.90
37446;DHT22;23307;51.136;14.942;2023-02-15T03:59:58;2.90;99.90
37446;DHT22;23307;51.136;14.942;2023-02-15T04:02:51;2.90;99.90
37446;DHT22;23307;51.136;14.942;2023-02-15T04:05:20;2.90;99.90
37446;DHT22;23307;51.136;14.942;2023-02-15T04:07:46;2.90;99.90
37446;DHT22;23307;51.136;14.942;2023-02-15T04:10:11;2.90;99.90
37446;DHT22;23307;51.136;14.942;2023-02-15T04:13:12;2.90;99.90
37446;DHT22;23307;51.136;14.942;2023-02-15T04:15:39;2.90;99.90
37446;DHT22;23307;51.136;14.942;2023-02-15T04:18:23;2.90;99.90
37446;DHT22;23307;51.136;14.942;2023-02-15T04:21:07;2.90;99.90
37446;DHT22;23307;51.136;14.942;2023-02-15T04:23:51;2.90;99.90
37446;DHT22;23307;51.136;14.942;2023-02-15T04:26:35;2.90;99.90
37446;DHT22;23307;51.136;14.942;2023-02-15T04:29:00;2.90;99.90
37446;DHT22;23307;51.136;14.942;2023-02-15T04:31:26;2.90;99.90
37446;DHT22;23307;51.136;14.942;2023-02-15T04:33:51;2.90;99.90
37446;DHT22;23307;51.136;14.942;2023-02-15T04:36:17;2.90;99.90
37446;DHT22;23307;51.136;14.942;2023-02-15T04:38:42;2.90;99.90
37446;DHT22;23307;51.136;14.942;2023-02-15T04:41:08;2.90;99.90
37446;DHT22;23307;51.136;14.942;2023-02-15T04:43:35;2.90;99.90
37446;DHT22;23307;51.136;14.942;2023-02-15T04:46:01;2.90;99.90
37446;DHT22;23307;51.136;14.942;2023-02-15T04:48:26;2.90;99.90
37446;DHT22;23307;51.136;14.942;2023-02-15T04:50:52;2.90;99.90
37446;DHT22;23307;51.136;14.942;2023-02-15T04:53:17;2.90;99.90
37446;DHT22;23307;51.136;14.942;2023-02-15T04:55:43;2.90;99.90
37446;DHT22;23307;51.136;14.942;2023-02-15T04:58:09;3.00;99.90
37446;DHT22;23307;51.136;14.942;2023-02-15T05:00:34;2.90;99.90
37446;DHT22;23307;51.136;14.942;2023-02-15T05:02:59;2.90;99.90
37446;DHT22;23307;51.136;14.942;2023-02-15T05:05:25;2.90;99.90
37446;DHT22;23307;51.136;14.942;2023-02-15T05:07:51;2.90;99.90
37446;DHT22;23307;51.136;14.942;2023-02-15T05:10:16;2.90;99.90
37446;DHT22;23307;51.136;14.942;2023-02-15T05:12:42;2.90;99.90
37446;DHT22;23307;51.136;14.942;2023-02-15T05:15:08;2.90;99.90
37446;DHT22;23307;51.136;14.942;2023-02-15T05:17:33;2.90;99.90
37446;DHT22;23307;51.136;14.942;2023-02-15T05:19:59;2.90;99.90
37446;DHT22;23307;51.136;14.942;2023-02-15T05:22:24;2.80;99.90
37446;DHT22;23307;51.136;14.942;2023-02-15T05:24:50;2.80;99.90
37446;DHT22;23307;51.136;14.942;2023-02-15T05:27:34;2.80;99.90
37446;DHT22;23307;51.136;14.942;2023-02-15T05:30:18;2.80;99.90
37446;DHT22;23307;51.136;14.942;2023-02-15T05:32:44;2.80;99.90
37446;DHT22;23307;51.136;14.942;2023-02-15T05:35:13;2.80;99.90
37446;DHT22;23307;51.136;14.942;2023-02-15T05:37:39;2.80;99.90
37446;DHT22;23307;51.136;14.942;2023-02-15T05:40:05;2.80;99.90
37446;DHT22;23307;51.136;14.942;2023-02-15T05:42:31;2.80;99.90
37446;DHT22;23307;51.136;14.942;2023-02-15T05:44:56;2.80;99.90
37446;DHT22;23307;51.136;14.942;2023-02-15T05:47:22;2.80;99.90
37446;DHT22;23307;51.136;14.942;2023-02-15T05:49:47;2.80;99.90
37446;DHT22;23307;51.136;14.942;2023-02-15T05:52:13;2.80;99.90
37446;DHT22;23307;51.136;14.942;2023-02-15T05:54:38;2.80;99.90
37446;DHT22;23307;51.136;14.942;2023-02-15T05:57:04;2.80;99.90
37446;DHT22;23307;51.136;14.942;2023-02-15T05:59:29;2.70;99.90
37446;DHT22;23307;51.136;14.942;2023-02-15T06:01:55;2.80;99.90
37446;DHT22;23307;51.136;14.942;2023-02-15T06:04:20;2.80;99.90
37446;DHT22;23307;51.136;14.942;2023-02-15T06:06:45;2.70;99.90
37446;DHT22;23307;51.136;14.942;2023-02-15T06:09:12;2.70;99.90
37446;DHT22;23307;51.136;14.942;2023-02-15T06:11:38;2.70;99.90
37446;DHT22;23307;51.136;14.942;2023-02-15T06:14:03;2.70;99.90
37446;DHT22;23307;51.136;14.942;2023-02-15T06:16:29;2.70;99.90
37446;DHT22;23307;51.136;14.942;2023-02-15T06:18:55;2.80;99.90
37446;DHT22;23307;51.136;14.942;2023-02-15T06:21:20;2.70;99.90
37446;DHT22;23307;51.136;14.942;2023-02-15T06:23:46;2.70;99.90
37446;DHT22;23307;51.136;14.942;2023-02-15T06:26:11;2.70;99.90
37446;DHT22;23307;51.136;14.942;2023-02-15T06:28:37;2.70;99.90
37446;DHT22;23307;51.136;14.942;2023-02-15T06:31:03;2.70;99.90
37446;DHT22;23307;51.136;14.942;2023-02-15T06:33:28;2.70;99.90
37446;DHT22;23307;51.136;14.942;2023-02-15T06:35:56;2.60;99.90
37446;DHT22;23307;51.136;14.942;2023-02-15T06:38:22;2.60;99.90
37446;DHT22;23307;51.136;14.942;2023-02-15T06:40:47;2.60;99.90
37446;DHT22;23307;51.136;14.942;2023-02-15T06:43:13;2.70;99.90
37446;DHT22;23307;51.136;14.942;2023-02-15T06:45:38;2.70;99.90
37446;DHT22;23307;51.136;14.942;2023-02-15T06:48:04;2.70;99.90
37446;DHT22;23307;51.136;14.942;2023-02-15T06:50:32;2.70;99.90
37446;DHT22;23307;51.136;14.942;2023-02-15T06:52:58;2.80;99.90
37446;DHT22;23307;51.136;14.942;2023-02-15T06:55:24;2.80;99.90
37446;DHT22;23307;51.136;14.942;2023-02-15T06:57:50;2.70;99.90
37446;DHT22;23307;51.136;14.942;2023-02-15T07:00:16;2.80;99.90
37446;DHT22;23307;51.136;14.942;2023-02-15T07:02:43;2.90;99.90
37446;DHT22;23307;51.136;14.942;2023-02-15T07:05:08;2.80;99.90
37446;DHT22;23307;51.136;14.942;2023-02-15T07:07:34;2.90;99.90
37446;DHT22;23307;51.136;14.942;2023-02-15T07:09:59;2.90;99.90
37446;DHT22;23307;51.136;14.942;2023-02-15T07:12:25;2.90;99.90
37446;DHT22;23307;51.136;14.942;2023-02-15T07:15:12;2.80;99.90
37446;DHT22;23307;51.136;14.942;2023-02-15T07:17:38;2.90;99.90
37446;DHT22;23307;51.136;14.942;2023-02-15T07:20:09;2.90;99.90
37446;DHT22;23307;51.136;14.942;2023-02-15T07:22:35;2.80;99.90
37446;DHT22;23307;51.136;14.942;2023-02-15T07:25:02;2.80;99.90
37446;DHT22;23307;51.136;14.942;2023-02-15T07:27:28;2.80;99.90
37446;DHT22;23307;51.136;14.942;2023-02-15T07:29:55;2.80;99.90
37446;DHT22;23307;51.136;14.942;2023-02-15T07:32:20;2.80;99.90
37446;DHT22;23307;51.136;14.942;2023-02-15T07:34:46;2.90;99.90
37446;DHT22;23307;51.136;14.942;2023-02-15T07:37:11;2.90;99.90
37446;DHT22;23307;51.136;14.942;2023-02-15T07:39:37;2.90;99.90
37446;DHT22;23307;51.136;14.942;2023-02-15T07:42:02;2.90;99.90
37446;DHT22;23307;51.136;14.942;2023-02-15T07:44:28;3.00;99.90
37446;DHT22;23307;51.136;14.942;2023-02-15T07:46:54;3.00;99.90
37446;DHT22;23307;51.136;14.942;2023-02-15T07:49:19;3.00;99.90
37446;DHT22;23307;51.136;14.942;2023-02-15T07:51:45;3.10;99.90
37446;DHT22;23307;51.136;14.942;2023-02-15T07:54:10;3.20;99.90
37446;DHT22;23307;51.136;14.942;2023-02-15T07:56:36;3.20;99.90
37446;DHT22;23307;51.136;14.942;2023-02-15T07:59:01;3.30;99.90
37446;DHT22;23307;51.136;14.942;2023-02-15T08:01:34;3.30;99.90
37446;DHT22;23307;51.136;14.942;2023-02-15T08:04:00;3.30;99.90
37446;DHT22;23307;51.136;14.942;2023-02-15T08:06:29;3.40;99.90
37446;DHT22;23307;51.136;14.942;2023-02-15T08:08:54;3.40;99.90
37446;DHT22;23307;51.136;14.942;2023-02-15T08:11:21;3.50;99.90
37446;DHT22;23307;51.136;14.942;2023-02-15T08:14:04;3.50;99.90
37446;DHT22;23307;51.136;14.942;2023-02-15T08:19:07;3.60;99.90
37446;DHT22;23307;51.136;14.942;2023-02-15T08:21:35;3.70;99.90
37446;DHT22;23307;51.136;14.942;2023-02-15T08:24:01;3.70;99.90
37446;DHT22;23307;51.136;14.942;2023-02-15T08:26:28;3.70;99.90
37446;DHT22;23307;51.136;14.942;2023-02-15T08:28:54;3.80;99.90
37446;DHT22;23307;51.136;14.942;2023-02-15T08:31:20;3.80;99.90
37446;DHT22;23307;51.136;14.942;2023-02-15T08:33:47;3.80;99.90
37446;DHT22;23307;51.136;14.942;2023-02-15T08:36:14;3.90;99.90
37446;DHT22;23307;51.136;14.942;2023-02-15T08:38:41;3.90;99.90
37446;DHT22;23307;51.136;14.942;2023-02-15T08:41:22;3.90;99.90
37446;DHT22;23307;51.136;14.942;2023-02-15T08:43:50;3.90;99.90
37446;DHT22;23307;51.136;14.942;2023-02-15T08:46:17;3.90;99.90
37446;DHT22;23307;51.136;14.942;2023-02-15T08:48:44;4.00;99.90
37446;DHT22;23307;51.136;14.942;2023-02-15T08:51:17;4.10;99.90
37446;DHT22;23307;51.136;14.942;2023-02-15T08:53:49;4.10;99.90
37446;DHT22;23307;51.136;14.942;2023-02-15T08:56:16;4.20;99.90
37446;DHT22;23307;51.136;14.942;2023-02-15T08:58:41;4.20;99.90
37446;DHT22;23307;51.136;14.942;2023-02-15T09:01:19;4.30;99.90
37446;DHT22;23307;51.136;14.942;2023-02-15T09:03:50;4.30;99.90
37446;DHT22;23307;51.136;14.942;2023-02-15T09:06:18;4.40;99.90
37446;DHT22;23307;51.136;14.942;2023-02-15T09:08:44;4.50;99.90
37446;DHT22;23307;51.136;14.942;2023-02-15T09:11:15;4.60;99.90
37446;DHT22;23307;51.136;14.942;2023-02-15T09:14:01;4.70;99.90
37446;DHT22;23307;51.136;14.942;2023-02-15T09:16:29;4.70;99.90
37446;DHT22;23307;51.136;14.942;2023-02-15T09:18:57;4.70;99.90
37446;DHT22;23307;51.136;14.942;2023-02-15T09:21:24;4.80;99.90
37446;DHT22;23307;51.136;14.942;2023-02-15T09:23:51;4.80;99.90
37446;DHT22;23307;51.136;14.942;2023-02-15T09:26:21;4.90;99.90
37446;DHT22;23307;51.136;14.942;2023-02-15T09:28:50;5.00;99.90
37446;DHT22;23307;51.136;14.942;2023-02-15T09:31:19;5.00;99.90
37446;DHT22;23307;51.136;14.942;2023-02-15T09:33:46;5.10;99.90
37446;DHT22;23307;51.136;14.942;2023-02-15T09:36:23;5.00;99.90
37446;DHT22;23307;51.136;14.942;2023-02-15T09:38:55;5.10;99.90
37446;DHT22;23307;51.136;14.942;2023-02-15T09:50:06;5.30;99.90
37446;DHT22;23307;51.136;14.942;2023-02-15T09:52:43;5.40;99.90
37446;DHT22;23307;51.136;14.942;2023-02-15T10:01:36;5.80;99.90
37446;DHT22;23307;51.136;14.942;2023-02-15T10:04:27;5.90;99.90
37446;DHT22;23307;51.136;14.942;2023-02-15T10:10:07;6.00;99.90
37446;DHT22;23307;51.136;14.942;2023-02-15T10:15:44;6.10;99.90
37446;DHT22;23307;51.136;14.942;2023-02-15T10:18:41;6.20;99.90
37446;DHT22;23307;51.136;14.942;2023-02-15T10:21:36;6.30;99.90
37446;DHT22;23307;51.136;14.942;2023-02-15T10:26:58;6.40;99.90
37446;DHT22;23307;51.136;14.942;2023-02-15T10:29:38;6.40;99.90
37446;DHT22;23307;51.136;14.942;2023-02-15T10:32:19;6.40;99.90
37446;DHT22;23307;51.136;14.942;2023-02-15T10:48:29;6.70;99.90
37446;DHT22;23307;51.136;14.942;2023-02-15T10:50:59;6.70;99.90
37446;DHT22;23307;51.136;14.942;2023-02-15T10:53:42;6.80;99.90
37446;DHT22;23307;51.136;14.942;2023-02-15T10:56:31;6.90;99.90
37446;DHT22;23307;51.136;14.942;2023-02-15T11:02:04;7.20;99.90
37446;DHT22;23307;51.136;14.942;2023-02-15T11:07:33;7.40;99.90
37446;DHT22;23307;51.136;14.942;2023-02-15T11:12:50;7.50;99.90
37446;DHT22;23307;51.136;14.942;2023-02-15T11:15:33;7.50;99.90
37446;DHT22;23307;51.136;14.942;2023-02-15T11:20:49;7.60;99.90
37446;DHT22;23307;51.136;14.942;2023-02-15T11:23:17;7.70;99.90
37446;DHT22;23307;51.136;14.942;2023-02-15T11:25:46;7.60;99.90
37446;DHT22;23307;51.136;14.942;2023-02-15T11:28:20;7.60;99.90
37446;DHT22;23307;51.136;14.942;2023-02-15T11:30:51;7.70;99.90
37446;DHT22;23307;51.136;14.942;2023-02-15T11:33:23;7.70;99.90
37446;DHT22;23307;51.136;14.942;2023-02-15T11:36:11;7.70;99.90
37446;DHT22;23307;51.136;14.942;2023-02-15T11:38:39;7.80;99.90
37446;DHT22;23307;51.136;14.942;2023-02-15T11:41:14;7.80;99.90
37446;DHT22;23307;51.136;14.942;2023-02-15T11:43:49;7.80;99.90
37446;DHT22;23307;51.136;14.942;2023-02-15T11:46:18;7.90;99.90
37446;DHT22;23307;51.136;14.942;2023-02-15T11:48:45;7.90;99.90
37446;DHT22;23307;51.136;14.942;2023-02-15T11:51:19;7.90;99.90
37446;DHT22;23307;51.136;14.942;2023-02-15T11:53:46;7.90;99.90
37446;DHT22;23307;51.136;14.942;2023-02-15T11:56:15;7.90;99.90
37446;DHT22;23307;51.136;14.942;2023-02-15T11:59:04;7.90;99.90
37446;DHT22;23307;51.136;14.942;2023-02-15T12:01:43;8.00;99.90
37446;DHT22;23307;51.136;14.942;2023-02-15T12:04:31;8.00;99.90
37446;DHT22;23307;51.136;14.942;2023-02-15T12:10:13;8.20;99.90
37446;DHT22;23307;51.136;14.942;2023-02-15T12:12:42;8.20;99.90
37446;DHT22;23307;51.136;14.942;2023-02-15T12:15:10;8.20;99.90
37446;DHT22;23307;51.136;14.942;2023-02-15T12:17:49;8.30;99.90
37446;DHT22;23307;51.136;14.942;2023-02-15T12:23:11;8.40;99.90
37446;DHT22;23307;51.136;14.942;2023-02-15T12:25:43;8.50;99.90
37446;DHT22;23307;51.136;14.942;2023-02-15T12:28:22;8.60;99.90
37446;DHT22;23307;51.136;14.942;2023-02-15T12:30:49;8.80;99.90
37446;DHT22;23307;51.136;14.942;2023-02-15T12:33:30;8.80;99.90
37446;DHT22;23307;51.136;14.942;2023-02-15T12:36:04;8.80;99.90
37446;DHT22;23307;51.136;14.942;2023-02-15T12:38:34;8.90;99.90
37446;DHT22;23307;51.136;14.942;2023-02-15T12:41:23;9.10;99.90
37446;DHT22;23307;51.136;14.942;2023-02-15T12:44:09;9.30;99.90
37446;DHT22;23307;51.136;14.942;2023-02-15T12:46:40;9.40;99.90
37446;DHT22;23307;51.136;14.942;2023-02-15T12:51:44;9.50;99.90
37446;DHT22;23307;51.136;14.942;2023-02-15T12:56:48;9.60;99.90
37446;DHT22;23307;51.136;14.942;2023-02-15T12:59:14;9.70;99.90
37446;DHT22;23307;51.136;14.942;2023-02-15T13:01:46;9.70;99.90
37446;DHT22;23307;51.136;14.942;2023-02-15T13:06:49;9.80;99.90
37446;DHT22;23307;51.136;14.942;2023-02-15T13:09:20;9.90;99.90
37446;DHT22;23307;51.136;14.942;2023-02-15T13:11:50;9.90;99.90
37446;DHT22;23307;51.136;14.942;2023-02-15T13:14:19;10.00;99.90
37446;DHT22;23307;51.136;14.942;2023-02-15T13:16:48;10.00;99.90
37446;DHT22;23307;51.136;14.942;2023-02-15T13:19:17;10.10;99.90
37446;DHT22;23307;51.136;14.942;2023-02-15T13:21:46;10.10;99.90
37446;DHT22;23307;51.136;14.942;2023-02-15T13:24:18;10.10;99.90
37446;DHT22;23307;51.136;14.942;2023-02-15T13:26:46;10.10;99.90
37446;DHT22;23307;51.136;14.942;2023-02-15T13:29:20;10.30;99.90
37446;DHT22;23307;51.136;14.942;2023-02-15T13:31:48;10.30;99.90
37446;DHT22;23307;51.136;14.942;2023-02-15T13:34:28;10.30;99.90
37446;DHT22;23307;51.136;14.942;2023-02-15T13:40:00;10.70;99.90
37446;DHT22;23307;51.136;14.942;2023-02-15T13:48:06;10.80;99.90
37446;DHT22;23307;51.136;14.942;2023-02-15T13:51:07;10.70;99.90
37446;DHT22;23307;51.136;14.942;2023-02-15T13:53:49;10.80;99.90
37446;DHT22;23307;51.136;14.942;2023-02-15T13:56:37;10.90;99.90
37446;DHT22;23307;51.136;14.942;2023-02-15T13:59:33;10.90;99.90
37446;DHT22;23307;51.136;14.942;2023-02-15T14:07:49;11.30;99.90
37446;DHT22;23307;51.136;14.942;2023-02-15T14:13:03;11.30;99.00
37446;DHT22;23307;51.136;14.942;2023-02-15T14:18:25;11.30;98.10
37446;DHT22;23307;51.136;14.942;2023-02-15T14:21:05;11.40;98.50
37446;DHT22;23307;51.136;14.942;2023-02-15T14:32:18;11.40;97.40
37446;DHT22;23307;51.136;14.942;2023-02-15T14:34:57;11.40;96.80
37446;DHT22;23307;51.136;14.942;2023-02-15T14:37:33;11.40;97.00
37446;DHT22;23307;51.136;14.942;2023-02-15T14:40:30;11.40;96.60
37446;DHT22;23307;51.136;14.942;2023-02-15T14:48:50;11.20;96.80
37446;DHT22;23307;51.136;14.942;2023-02-15T14:57:20;10.90;96.20
37446;DHT22;23307;51.136;14.942;2023-02-15T14:59:42;10.90;96.20
37446;DHT22;23307;51.136;14.942;2023-02-15T15:04:44;10.40;96.20
37446;DHT22;23307;51.136;14.942;2023-02-15T15:07:22;10.10;96.60
37446;DHT22;23307;51.136;14.942;2023-02-15T15:12:50;9.70;97.60
37446;DHT22;23307;51.136;14.942;2023-02-15T15:18:05;9.30;98.60
37446;DHT22;23307;51.136;14.942;2023-02-15T15:20:44;8.80;98.70
37446;DHT22;23307;51.136;14.942;2023-02-15T15:25:47;8.10;99.90
37446;DHT22;23307;51.136;14.942;2023-02-15T15:40:00;6.90;99.90
37446;DHT22;23307;51.136;14.942;2023-02-15T15:42:49;6.80;99.90
37446;DHT22;23307;51.136;14.942;2023-02-15T15:50:52;6.30;99.90
37446;DHT22;23307;51.136;14.942;2023-02-15T15:53:22;6.20;99.90
37446;DHT22;23307;51.136;14.942;2023-02-15T15:55:52;6.10;99.90
37446;DHT22;23307;51.136;14.942;2023-02-15T15:58:19;6.00;99.90
37446;DHT22;23307;51.136;14.942;2023-02-15T16:00:55;6.00;99.90
37446;DHT22;23307;51.136;14.942;2023-02-15T16:03:25;5.90;99.90
37446;DHT22;23307;51.136;14.942;2023-02-15T16:05:50;5.80;99.90
37446;DHT22;23307;51.136;14.942;2023-02-15T16:08:34;5.70;99.90
37446;DHT22;23307;51.136;14.942;2023-02-15T16:11:10;5.60;99.90
37446;DHT22;23307;51.136;14.942;2023-02-15T16:13:36;5.50;99.90
37446;DHT22;23307;51.136;14.942;2023-02-15T16:16:01;5.40;99.90
37446;DHT22;23307;51.136;14.942;2023-02-15T16:18:27;5.20;99.90
37446;DHT22;23307;51.136;14.942;2023-02-15T16:21:01;5.10;99.90
37446;DHT22;23307;51.136;14.942;2023-02-15T16:28:58;4.90;99.90
37446;DHT22;23307;51.136;14.942;2023-02-15T16:31:24;4.80;99.90
37446;DHT22;23307;51.136;14.942;2023-02-15T16:33:53;4.70;99.90
37446;DHT22;23307;51.136;14.942;2023-02-15T16:41:17;4.50;99.90
37446;DHT22;23307;51.136;14.942;2023-02-15T16:43:48;4.40;99.90
37446;DHT22;23307;51.136;14.942;2023-02-15T16:46:33;4.20;99.90
37446;DHT22;23307;51.136;14.942;2023-02-15T16:49:03;4.10;99.90
37446;DHT22;23307;51.136;14.942;2023-02-15T16:51:33;4.10;99.90
37446;DHT22;23307;51.136;14.942;2023-02-15T16:54:05;4.10;99.90
37446;DHT22;23307;51.136;14.942;2023-02-15T16:56:31;4.10;99.90
37446;DHT22;23307;51.136;14.942;2023-02-15T16:58:59;4.10;99.90
37446;DHT22;23307;51.136;14.942;2023-02-15T17:01:28;4.00;99.90
37446;DHT22;23307;51.136;14.942;2023-02-15T17:04:25;3.90;99.90
37446;DHT22;23307;51.136;14.942;2023-02-15T17:07:12;3.90;99.90
37446;DHT22;23307;51.136;14.942;2023-02-15T17:09:52;3.80;99.90
37446;DHT22;23307;51.136;14.942;2023-02-15T17:12:51;3.70;99.90
37446;DHT22;23307;51.136;14.942;2023-02-15T17:15:32;3.60;99.90
37446;DHT22;23307;51.136;14.942;2023-02-15T17:18:19;3.60;99.90
37446;DHT22;23307;51.136;14.942;2023-02-15T17:20:47;3.60;99.90
37446;DHT22;23307;51.136;14.942;2023-02-15T17:23:32;3.50;99.90
37446;DHT22;23307;51.136;14.942;2023-02-15T17:26:01;3.40;99.90
37446;DHT22;23307;51.136;14.942;2023-02-15T17:28:30;3.50;99.90
37446;DHT22;23307;51.136;14.942;2023-02-15T17:30:57;3.40;99.90
37446;DHT22;23307;51.136;14.942;2023-02-15T17:33:41;3.40;99.90
37446;DHT22;23307;51.136;14.942;2023-02-15T17:36:21;3.40;99.90
37446;DHT22;23307;51.136;14.942;2023-02-15T17:41:23;3.30;99.90
37446;DHT22;23307;51.136;14.942;2023-02-15T17:43:49;3.30;99.90
37446;DHT22;23307;51.136;14.942;2023-02-15T17:46:14;3.30;99.90
37446;DHT22;23307;51.136;14.942;2023-02-15T17:48:45;3.30;99.90
37446;DHT22;23307;51.136;14.942;2023-02-15T17:51:12;3.20;99.90
37446;DHT22;23307;51.136;14.942;2023-02-15T17:53:38;3.20;99.90
37446;DHT22;23307;51.136;14.942;2023-02-15T17:56:04;3.20;99.90
37446;DHT22;23307;51.136;14.942;2023-02-15T17:58:35;3.20;99.90
37446;DHT22;23307;51.136;14.942;2023-02-15T18:01:04;3.20;99.90
37446;DHT22;23307;51.136;14.942;2023-02-15T18:03:51;3.20;99.90
37446;DHT22;23307;51.136;14.942;2023-02-15T18:06:38;3.20;99.90
37446;DHT22;23307;51.136;14.942;2023-02-15T18:09:23;3.20;99.90
37446;DHT22;23307;51.136;14.942;2023-02-15T18:12:24;3.10;99.90
37446;DHT22;23307;51.136;14.942;2023-02-15T18:14:51;3.10;99.90
37446;DHT22;23307;51.136;14.942;2023-02-15T18:17:19;3.10;99.90
37446;DHT22;23307;51.136;14.942;2023-02-15T18:19:46;3.00;99.90
37446;DHT22;23307;51.136;14.942;2023-02-15T18:22:14;3.00;99.90
37446;DHT22;23307;51.136;14.942;2023-02-15T18:24:40;3.00;99.90
37446;DHT22;23307;51.136;14.942;2023-02-15T18:27:06;3.00;99.90
37446;DHT22;23307;51.136;14.942;2023-02-15T18:29:32;2.90;99.90
37446;DHT22;23307;51.136;14.942;2023-02-15T18:31:58;2.90;99.90
37446;DHT22;23307;51.136;14.942;2023-02-15T18:34:28;2.90;99.90
37446;DHT22;23307;51.136;14.942;2023-02-15T18:36:55;2.80;99.90
37446;DHT22;23307;51.136;14.942;2023-02-15T18:39:37;2.80;99.90
37446;DHT22;23307;51.136;14.942;2023-02-15T18:42:05;2.80;99.90